Time;durP1;ratioP1;P1;durP2;ratioP2;P2;SDS_P1;SDS_P2;PMS_P1;PMS_P2;Temp;Humidity;BMP_temperature;BMP_pressure;BME280_temperature;BME280_humidity;BME280_pressure;Samples;Min_cycle;Max_cycle;Signal;HPM_P1;HPM_P2
2023/07/30 00:00:30;;;;;;;7.75;3.20;;;;;;;21.74;100.00;95829.22;5052059;28;20457;-80
2023/07/30 00:02:55;;;;;;;6.28;3.55;;;;;;;21.78;100.00;95841.06;5061735;28;20463;-81
2023/07/30 00:05:21;;;;;;;6.30;3.80;;;;;;;21.83;100.00;95859.06;5047786;28;20039;-80
2023/07/30 00:07:57;;;;;;;9.57;4.93;;;;;;;21.65;100.00;95868.09;5057331;28;20032;-81
2023/07/30 00:10:23;;;;;;;6.22;4.57;;;;;;;21.40;100.00;95861.19;5068082;28;20482;-81
2023/07/30 00:12:49;;;;;;;7.47;4.50;;;;;;;21.69;100.00;95831.78;5044050;28;20028;-80
2023/07/30 00:15:15;;;;;;;7.85;4.70;;;;;;;21.16;100.00;95814.94;5052072;28;20020;-80
2023/07/30 00:17:41;;;;;;;9.20;4.43;;;;;;;21.22;100.00;95837.25;5053868;28;20078;-80
2023/07/30 00:20:08;;;;;;;7.50;4.50;;;;;;;20.90;100.00;95869.72;5044681;28;20036;-80
2023/07/30 00:22:33;;;;;;;4.80;2.40;;;;;;;20.56;100.00;95865.19;5053949;28;20021;-80
2023/07/30 00:24:59;;;;;;;3.58;1.63;;;;;;;20.44;100.00;95865.13;5070322;28;20399;-80
2023/07/30 00:27:24;;;;;;;5.72;1.23;;;;;;;20.00;100.00;95845.88;5052029;28;20025;-81
2023/07/30 00:29:53;;;;;;;3.28;1.05;;;;;;;19.89;100.00;95814.66;5065592;28;20024;-80
2023/07/30 00:32:19;;;;;;;2.15;1.00;;;;;;;20.00;100.00;95781.81;5047197;28;20067;-80
2023/07/30 00:34:45;;;;;;;8.75;3.80;;;;;;;20.01;100.00;95791.44;5070368;28;20052;-81
2023/07/30 00:37:11;;;;;;;1.75;0.85;;;;;;;19.91;100.00;95797.34;5054760;28;20025;-81
2023/07/30 00:39:36;;;;;;;3.25;1.25;;;;;;;19.98;100.00;95800.72;5070628;28;20497;-81
2023/07/30 00:42:02;;;;;;;2.33;1.10;;;;;;;19.62;100.00;95801.66;5044744;28;20021;-80
2023/07/30 00:44:27;;;;;;;2.33;1.15;;;;;;;19.31;100.00;95800.00;5058736;28;20586;-81
2023/07/30 00:46:53;;;;;;;3.13;0.82;;;;;;;19.37;100.00;95815.09;5051009;28;20490;-81
2023/07/30 00:49:19;;;;;;;1.42;0.77;;;;;;;19.73;100.00;95832.09;5048793;28;20028;-81
2023/07/30 00:51:45;;;;;;;1.95;1.00;;;;;;;20.09;100.00;95833.84;5069103;28;20021;-81
2023/07/30 00:54:11;;;;;;;6.03;0.90;;;;;;;20.16;100.00;95818.53;5058565;28;20554;-81
2023/07/30 00:56:38;;;;;;;2.30;0.73;;;;;;;20.09;100.00;95812.50;5068416;28;20037;-81
2023/07/30 00:59:14;;;;;;;5.20;0.98;;;;;;;20.40;100.00;95824.72;5067864;28;20131;-81
2023/07/30 01:01:42;;;;;;;1.17;0.63;;;;;;;20.57;100.00;95818.72;5065703;28;20624;-81
2023/07/30 01:04:26;;;;;;;4.32;0.95;;;;;;;20.48;100.00;95819.03;5054705;28;20112;-81
2023/07/30 01:06:51;;;;;;;2.15;0.82;;;;;;;20.48;100.00;95835.03;5073648;28;20024;-81
2023/07/30 01:09:17;;;;;;;1.80;0.68;;;;;;;20.43;100.00;95848.28;5072995;28;20572;-81
2023/07/30 01:11:44;;;;;;;2.05;0.85;;;;;;;20.59;100.00;95838.81;5055322;28;20059;-81
2023/07/30 01:14:10;;;;;;;2.75;1.10;;;;;;;20.63;100.00;95828.50;5069221;28;20446;-81
2023/07/30 01:16:37;;;;;;;1.13;0.80;;;;;;;20.40;100.00;95816.72;5056555;28;20013;-81
2023/07/30 01:19:04;;;;;;;3.55;1.13;;;;;;;20.35;100.00;95818.44;5071100;28;20386;-81
2023/07/30 01:21:36;;;;;;;1.52;0.80;;;;;;;20.46;100.00;95817.66;5056530;28;20024;-81
2023/07/30 01:24:03;;;;;;;1.52;0.80;;;;;;;20.32;100.00;95824.22;5073686;28;20093;-81
2023/07/30 01:26:42;;;;;;;1.00;0.70;;;;;;;20.44;100.00;95825.06;5061829;28;20074;-81
2023/07/30 01:29:16;;;;;;;9.73;1.95;;;;;;;20.19;100.00;95827.94;5044305;28;20769;-80
2023/07/30 01:31:43;;;;;;;2.28;1.10;;;;;;;20.16;100.00;95834.56;5046532;28;20021;-80
2023/07/30 01:34:34;;;;;;;3.13;1.45;;;;;;;19.97;100.00;95841.00;5069917;28;20119;-81
2023/07/30 01:37:01;;;;;;;3.15;1.13;;;;;;;20.32;100.00;95826.91;5048284;28;20017;-80
2023/07/30 01:39:27;;;;;;;3.10;1.20;;;;;;;20.33;100.00;95834.69;5072378;28;20021;-81
2023/07/30 01:41:56;;;;;;;2.05;1.08;;;;;;;20.42;100.00;95829.81;5057854;28;20497;-81
2023/07/30 01:44:23;;;;;;;3.35;1.23;;;;;;;20.31;100.00;95839.44;5072803;28;20025;-81
2023/07/30 01:46:48;;;;;;;1.85;1.10;;;;;;;20.30;100.00;95840.50;5073073;28;20020;-81
2023/07/30 01:49:14;;;;;;;2.78;0.98;;;;;;;20.14;100.00;95836.63;5056215;28;20382;-81
2023/07/30 01:51:39;;;;;;;2.35;0.93;;;;;;;20.31;100.00;95831.44;5070282;28;20372;-81
2023/07/30 01:54:05;;;;;;;2.75;1.38;;;;;;;20.40;100.00;95830.06;5055322;28;20474;-81
2023/07/30 01:56:30;;;;;;;2.50;1.20;;;;;;;20.26;100.00;95831.31;5055776;28;20427;-81
2023/07/30 01:58:57;;;;;;;3.38;0.93;;;;;;;20.35;100.00;95832.59;5068078;28;20724;-81
2023/07/30 02:01:34;;;;;;;2.63;1.20;;;;;;;20.41;100.00;95837.03;5051675;28;20086;-81
2023/07/30 02:04:00;;;;;;;2.67;1.30;;;;;;;20.35;100.00;95839.78;5072759;28;20020;-81
2023/07/30 02:06:26;;;;;;;3.55;1.08;;;;;;;20.43;100.00;95839.47;5071040;28;20372;-81
2023/07/30 02:09:12;;;;;;;1.35;0.80;;;;;;;20.33;100.00;95832.03;5048306;28;20017;-81
2023/07/30 02:11:37;;;;;;;2.15;1.00;;;;;;;20.36;100.00;95831.56;5065389;28;20020;-82
2023/07/30 02:14:03;;;;;;;2.95;1.15;;;;;;;20.40;100.00;95824.72;5071204;28;20028;-81
2023/07/30 02:16:28;;;;;;;1.73;0.90;;;;;;;20.27;100.00;95835.63;5054606;28;20048;-81
2023/07/30 02:18:54;;;;;;;2.60;0.90;;;;;;;20.01;100.00;95842.16;5067456;28;20043;-81
2023/07/30 02:21:19;;;;;;;2.55;0.80;;;;;;;20.06;100.00;95838.84;5047951;28;20425;-82
2023/07/30 02:23:45;;;;;;;3.28;1.30;;;;;;;20.10;100.00;95843.47;5072274;28;20024;-81
2023/07/30 02:26:10;;;;;;;3.50;1.05;;;;;;;20.08;100.00;95837.53;5059585;28;20023;-81
2023/07/30 02:28:36;;;;;;;2.92;1.00;;;;;;;20.00;100.00;95843.22;5071979;28;20013;-81
2023/07/30 02:31:01;;;;;;;2.53;1.08;;;;;;;20.12;100.00;95841.41;5071446;28;20387;-80
2023/07/30 02:33:27;;;;;;;2.08;0.85;;;;;;;20.01;100.00;95840.31;5063471;28;20020;-81
2023/07/30 02:35:53;;;;;;;2.55;1.10;;;;;;;19.99;100.00;95834.41;5055296;28;20017;-81
2023/07/30 02:38:18;;;;;;;2.10;0.90;;;;;;;20.06;100.00;95836.97;5077711;28;20029;-81
2023/07/30 02:40:56;;;;;;;2.13;1.00;;;;;;;20.08;100.00;95842.06;5077227;28;20035;-80
2023/07/30 02:43:29;;;;;;;3.13;0.90;;;;;;;20.12;100.00;95843.22;5048459;28;20090;-80
2023/07/30 02:45:54;;;;;;;2.28;1.00;;;;;;;20.09;100.00;95839.19;5054439;28;20356;-81
2023/07/30 02:48:20;;;;;;;1.92;1.00;;;;;;;19.93;100.00;95835.31;5069338;28;20062;-80
2023/07/30 02:50:45;;;;;;;1.90;0.95;;;;;;;20.08;100.00;95842.06;5070294;28;20074;-81
2023/07/30 02:53:11;;;;;;;3.05;1.30;;;;;;;19.75;100.00;95838.00;5062363;28;20358;-81
2023/07/30 02:55:36;;;;;;;2.33;0.90;;;;;;;19.73;100.00;95848.13;5049797;28;20389;-81
2023/07/30 02:58:02;;;;;;;2.30;1.15;;;;;;;19.83;100.00;95843.03;5053922;28;20016;-81
2023/07/30 03:00:28;;;;;;;2.58;1.30;;;;;;;19.67;100.00;95839.16;5064229;28;20513;-81
2023/07/30 03:02:53;;;;;;;3.55;1.20;;;;;;;19.54;100.00;95840.09;5054924;28;20023;-81
2023/07/30 03:05:19;;;;;;;2.42;1.10;;;;;;;19.71;100.00;95855.53;5071579;28;20024;-81
2023/07/30 03:07:45;;;;;;;2.63;1.08;;;;;;;19.76;100.00;95866.34;5071494;28;20024;-81
2023/07/30 03:10:10;;;;;;;2.50;1.63;;;;;;;19.94;100.00;95857.47;5054813;28;20073;-80
2023/07/30 03:12:36;;;;;;;4.07;1.40;;;;;;;19.62;100.00;95865.66;5071182;28;20016;-81
2023/07/30 03:15:01;;;;;;;4.25;1.77;;;;;;;19.75;100.00;95865.53;5051491;28;20162;-81
2023/07/30 03:17:27;;;;;;;3.35;1.75;;;;;;;19.87;100.00;95862.91;5057556;28;20032;-81
2023/07/30 03:19:53;;;;;;;3.03;1.60;;;;;;;19.77;100.00;95862.63;5071056;28;20021;-81
2023/07/30 03:22:22;;;;;;;4.53;2.03;;;;;;;19.94;100.00;95868.94;5052517;28;20032;-81
2023/07/30 03:24:48;;;;;;;3.92;1.92;;;;;;;20.01;100.00;95869.66;5054291;28;20386;-80
2023/07/30 03:27:14;;;;;;;3.65;1.95;;;;;;;19.97;100.00;95876.50;5069846;28;20478;-81
2023/07/30 03:29:47;;;;;;;4.15;2.00;;;;;;;20.05;100.00;95869.22;5043668;28;20029;-81
2023/07/30 03:32:12;;;;;;;4.45;1.98;;;;;;;20.04;100.00;95870.25;5068280;28;20020;-81
2023/07/30 03:34:38;;;;;;;3.47;2.15;;;;;;;20.09;100.00;95865.06;5070745;28;20500;-81
2023/07/30 03:37:05;;;;;;;4.22;2.50;;;;;;;20.01;100.00;95869.66;5048878;28;20071;-80
2023/07/30 03:39:30;;;;;;;5.57;2.67;;;;;;;20.23;100.00;95866.50;5070996;28;20490;-81
2023/07/30 03:41:56;;;;;;;4.53;2.72;;;;;;;20.42;100.00;95869.88;5071283;28;20016;-81
2023/07/30 03:44:22;;;;;;;8.02;3.00;;;;;;;20.46;100.00;95858.53;5071023;28;20059;-80
2023/07/30 03:46:47;;;;;;;7.22;2.78;;;;;;;20.07;100.00;95859.13;5051111;28;20050;-81
2023/07/30 03:49:13;;;;;;;4.43;2.90;;;;;;;19.98;100.00;95859.44;5052547;28;20044;-81
2023/07/30 03:51:38;;;;;;;5.78;3.60;;;;;;;20.06;100.00;95868.19;5051185;28;20785;-81
2023/07/30 03:54:04;;;;;;;6.30;3.42;;;;;;;20.31;100.00;95871.50;5044849;28;20021;-80
2023/07/30 03:56:30;;;;;;;6.70;3.70;;;;;;;20.29;100.00;95864.75;5070602;28;20024;-81
2023/07/30 03:59:19;;;;;;;6.18;3.63;;;;;;;20.33;100.00;95860.59;5054456;28;20542;-81
2023/07/30 04:01:45;;;;;;;7.13;3.38;;;;;;;20.32;100.00;95866.97;5056455;28;20086;-81
2023/07/30 04:04:10;;;;;;;5.57;3.60;;;;;;;20.28;100.00;95866.59;5056006;28;20029;-81
2023/07/30 04:06:36;;;;;;;7.05;4.15;;;;;;;20.29;100.00;95875.41;5054160;28;20055;-81
2023/07/30 04:09:02;;;;;;;6.63;3.75;;;;;;;20.43;100.00;95877.69;5070806;28;20024;-81
2023/07/30 04:11:27;;;;;;;5.75;3.85;;;;;;;20.43;100.00;95883.03;5050779;28;20040;-81
2023/07/30 04:13:53;;;;;;;6.45;3.95;;;;;;;20.61;100.00;95876.78;5071028;28;20028;-81
2023/07/30 04:16:18;;;;;;;4.00;2.78;;;;;;;20.60;100.00;95885.88;5067505;28;20025;-81
2023/07/30 04:18:44;;;;;;;3.60;2.20;;;;;;;20.60;100.00;95888.53;5053843;28;20025;-80
2023/07/30 04:21:10;;;;;;;3.83;2.28;;;;;;;20.57;100.00;95889.00;5062618;28;20024;-81
2023/07/30 04:23:36;;;;;;;11.57;4.20;;;;;;;20.41;100.00;95889.63;5070839;28;20422;-80
2023/07/30 04:26:02;;;;;;;5.18;3.40;;;;;;;20.44;100.00;95891.84;5054047;28;20021;-82
2023/07/30 04:28:28;;;;;;;6.68;4.35;;;;;;;20.53;100.00;95895.03;5065176;28;20378;-81
2023/07/30 04:30:53;;;;;;;7.13;4.20;;;;;;;20.49;100.00;95897.31;5056583;28;20027;-80
2023/07/30 04:33:19;;;;;;;7.07;4.55;;;;;;;20.41;100.00;95901.13;5039169;28;20087;-80
2023/07/30 04:35:44;;;;;;;6.30;4.25;;;;;;;20.51;100.00;95899.78;5053858;28;20020;-80
2023/07/30 04:38:21;;;;;;;8.02;4.45;;;;;;;20.60;100.00;95895.75;5055880;28;20020;-80
2023/07/30 04:40:47;;;;;;;5.55;3.90;;;;;;;20.77;100.00;95893.19;5065789;28;20109;-80
2023/07/30 04:43:14;;;;;;;7.28;4.63;;;;;;;20.75;100.00;95898.75;5064199;28;20039;-81
2023/07/30 04:45:40;;;;;;;6.53;4.22;;;;;;;20.55;100.00;95906.28;5055608;28;20032;-80
2023/07/30 04:48:06;;;;;;;5.97;4.05;;;;;;;20.75;100.00;95900.63;5056353;28;20056;-80
2023/07/30 04:50:32;;;;;;;6.97;4.22;;;;;;;20.68;100.00;95896.19;5077335;28;20038;-80
2023/07/30 04:52:58;;;;;;;6.63;4.22;;;;;;;20.67;100.00;95904.47;5056691;28;20024;-80
2023/07/30 04:55:24;;;;;;;6.40;4.40;;;;;;;20.70;100.00;95904.81;5059155;28;20393;-80
2023/07/30 04:57:50;;;;;;;6.72;3.83;;;;;;;20.72;100.00;95907.22;5070078;28;20031;-80
2023/07/30 05:00:43;;;;;;;7.32;3.78;;;;;;;20.77;100.00;95904.69;5067470;28;20041;-80
2023/07/30 05:03:10;;;;;;;7.65;4.45;;;;;;;20.62;100.00;95904.31;5059729;28;20052;-80
2023/07/30 05:05:35;;;;;;;6.18;4.45;;;;;;;20.92;100.00;95905.06;5070614;28;20024;-81
2023/07/30 05:08:01;;;;;;;6.93;4.93;;;;;;;20.92;100.00;95918.44;5057718;28;20436;-81
2023/07/30 05:10:26;;;;;;;7.28;4.43;;;;;;;21.20;100.00;95903.53;5057198;28;20024;-80
2023/07/30 05:12:52;;;;;;;5.85;4.13;;;;;;;21.09;100.00;95904.34;5073772;28;20478;-81
2023/07/30 05:15:17;;;;;;;6.57;4.45;;;;;;;21.35;100.00;95906.56;5073901;28;20028;-80
2023/07/30 05:17:43;;;;;;;7.63;4.07;;;;;;;21.39;100.00;95915.75;5053439;28;20025;-80
2023/07/30 05:20:09;;;;;;;8.48;4.72;;;;;;;21.36;100.00;95907.38;5069698;28;20021;-80
2023/07/30 05:22:36;;;;;;;7.35;4.10;;;;;;;21.35;100.00;95911.09;5056816;28;20505;-80
2023/07/30 05:25:01;;;;;;;7.43;3.92;;;;;;;21.15;100.00;95906.09;5072924;28;20032;-80
2023/07/30 05:27:28;;;;;;;5.82;3.97;;;;;;;21.47;100.00;95911.09;5076349;28;20788;-80
2023/07/30 05:29:55;;;;;;;6.53;4.50;;;;;;;21.64;100.00;95904.75;5069273;28;20020;-81
2023/07/30 05:32:20;;;;;;;6.75;4.07;;;;;;;21.67;100.00;95903.47;5054990;28;20048;-80
2023/07/30 05:34:46;;;;;;;8.35;4.22;;;;;;;21.64;100.00;95903.94;5056863;28;20028;-80
2023/07/30 05:37:11;;;;;;;6.78;3.55;;;;;;;21.71;100.00;95899.28;5056542;28;20020;-80
2023/07/30 05:39:37;;;;;;;6.75;4.28;;;;;;;22.27;100.00;95903.03;5073591;28;20635;-80
2023/07/30 05:42:03;;;;;;;8.20;4.30;;;;;;;22.23;100.00;95906.41;5055709;28;20016;-80
2023/07/30 05:44:28;;;;;;;6.78;4.05;;;;;;;22.35;100.00;95916.03;5073016;28;20546;-80
2023/07/30 05:46:54;;;;;;;5.40;3.53;;;;;;;22.11;100.00;95914.50;5053720;28;20125;-82
2023/07/30 05:49:19;;;;;;;5.63;3.50;;;;;;;22.25;100.00;95909.69;5071137;28;20047;-80
2023/07/30 05:51:45;;;;;;;6.85;4.10;;;;;;;21.79;100.00;95912.28;5061434;28;20390;-78
2023/07/30 05:54:10;;;;;;;4.82;2.92;;;;;;;21.75;100.00;95908.44;5071510;28;20372;-78
2023/07/30 05:56:53;;;;;;;8.65;3.72;;;;;;;21.36;100.00;95913.56;5072910;28;20491;-78
2023/07/30 05:59:20;;;;;;;6.05;3.33;;;;;;;21.60;100.00;95905.47;5055679;28;20389;-78
2023/07/30 06:01:45;;;;;;;6.20;3.97;;;;;;;21.34;100.00;95909.44;5056351;28;20020;-78
2023/07/30 06:04:11;;;;;;;9.05;3.75;;;;;;;21.54;100.00;95911.78;5074052;28;20033;-78
2023/07/30 06:06:36;;;;;;;5.45;3.22;;;;;;;21.47;100.00;95905.75;5070119;28;20016;-78
2023/07/30 06:09:02;;;;;;;9.48;3.83;;;;;;;21.86;100.00;95912.13;5052923;28;20331;-77
2023/07/30 06:11:29;;;;;;;6.93;3.90;;;;;;;21.75;100.00;95911.13;5057976;28;20028;-77
2023/07/30 06:14:01;;;;;;;5.80;3.83;;;;;;;21.72;100.00;95919.63;5059530;28;20040;-77
2023/07/30 06:16:27;;;;;;;6.30;3.80;;;;;;;21.87;100.00;95919.94;5043095;28;20058;-77
2023/07/30 06:18:53;;;;;;;8.23;4.10;;;;;;;21.87;100.00;95917.25;5066025;28;20394;-78
2023/07/30 06:21:18;;;;;;;6.95;4.25;;;;;;;21.79;100.00;95919.50;5059874;28;20100;-77
2023/07/30 06:23:44;;;;;;;5.22;3.25;;;;;;;22.05;100.00;95924.28;5050540;28;20043;-78
2023/07/30 06:26:09;;;;;;;5.22;3.65;;;;;;;22.07;100.00;95924.06;5052242;28;20013;-77
2023/07/30 06:28:35;;;;;;;5.45;3.40;;;;;;;21.59;100.00;95938.63;5061773;28;20436;-77
2023/07/30 06:31:04;;;;;;;6.00;3.20;;;;;;;21.88;100.00;95926.91;5058481;28;20360;-77
2023/07/30 06:33:30;;;;;;;7.38;3.78;;;;;;;21.66;100.00;95928.59;5066868;28;20111;-79
2023/07/30 06:36:00;;;;;;;7.70;3.80;;;;;;;21.91;100.00;95935.53;5066773;28;20697;-78
2023/07/30 06:38:26;;;;;;;6.43;3.85;;;;;;;21.87;100.00;95936.00;5075969;28;20079;-78
2023/07/30 06:40:52;;;;;;;7.32;3.72;;;;;;;22.19;100.00;95938.22;5071138;28;20020;-78
2023/07/30 06:43:24;;;;;;;5.75;3.63;;;;;;;21.81;100.00;95936.13;5055348;28;20032;-78
2023/07/30 06:46:08;;;;;;;6.45;3.65;;;;;;;22.17;100.00;95940.34;5070008;28;20023;-78
2023/07/30 06:48:34;;;;;;;10.18;3.85;;;;;;;21.82;100.00;95948.47;5060541;28;20036;-78
2023/07/30 06:50:59;;;;;;;9.70;4.07;;;;;;;22.02;100.00;95942.69;5066276;28;20020;-78
2023/07/30 06:53:25;;;;;;;6.82;3.30;;;;;;;22.05;100.00;95948.38;5054577;28;20047;-78
2023/07/30 06:55:51;;;;;;;5.93;3.50;;;;;;;22.11;100.00;95946.63;5055247;28;20028;-78
2023/07/30 06:58:31;;;;;;;5.32;3.53;;;;;;;21.93;100.00;95960.19;5063611;28;20025;-79
2023/07/30 07:01:02;;;;;;;5.95;3.63;;;;;;;22.08;100.00;95955.13;5066665;28;20024;-78
2023/07/30 07:03:35;;;;;;;6.90;3.60;;;;;;;21.93;100.00;95953.00;5071082;28;20030;-78
2023/07/30 07:06:01;;;;;;;6.65;3.85;;;;;;;22.34;100.00;95949.25;5054838;28;20102;-78
2023/07/30 07:08:27;;;;;;;6.03;3.53;;;;;;;22.25;100.00;95949.88;5071636;28;20043;-78
2023/07/30 07:10:52;;;;;;;4.35;3.10;;;;;;;22.27;100.00;95961.97;5066196;28;20016;-78
2023/07/30 07:13:18;;;;;;;5.15;3.08;;;;;;;22.57;100.00;95952.88;5066402;28;20069;-78
2023/07/30 07:15:44;;;;;;;6.57;3.95;;;;;;;22.29;100.00;95965.22;5047699;28;20024;-78
2023/07/30 07:18:10;;;;;;;4.45;2.83;;;;;;;22.29;100.00;95970.56;5074164;28;20108;-78
2023/07/30 07:20:37;;;;;;;5.63;3.13;;;;;;;22.25;100.00;95974.78;5054365;28;20445;-78
2023/07/30 07:23:32;;;;;;;5.28;3.20;;;;;;;22.27;100.00;95964.66;5069111;28;20027;-78
2023/07/30 07:25:57;;;;;;;4.57;2.78;;;;;;;22.47;100.00;95956.19;5066451;28;20490;-78
2023/07/30 07:28:23;;;;;;;4.38;2.85;;;;;;;22.82;100.00;95949.78;5052841;28;20047;-78
2023/07/30 07:30:48;;;;;;;6.20;2.95;;;;;;;22.78;100.00;95951.34;5070969;28;20445;-78
2023/07/30 07:33:14;;;;;;;4.75;2.50;;;;;;;22.80;100.00;95952.72;5071099;28;20020;-78
2023/07/30 07:35:44;;;;;;;5.40;2.63;;;;;;;22.79;100.00;95967.16;5054760;28;20016;-78
2023/07/30 07:38:10;;;;;;;4.78;2.55;;;;;;;22.97;100.00;95968.84;5069670;28;20016;-78
2023/07/30 07:40:39;;;;;;;5.05;2.75;;;;;;;22.46;100.00;95975.97;5068270;28;21318;-78
2023/07/30 07:43:05;;;;;;;5.07;2.95;;;;;;;23.58;100.00;95965.44;5065045;28;20020;-78
2023/07/30 07:45:31;;;;;;;3.85;2.33;;;;;;;24.19;100.00;95964.34;5070973;28;20016;-78
2023/07/30 07:47:57;;;;;;;5.35;2.30;;;;;;;24.02;100.00;95968.16;5071320;28;20070;-78
2023/07/30 07:50:22;;;;;;;3.63;2.45;;;;;;;24.26;100.00;95968.72;5071079;28;20032;-78
2023/07/30 07:52:48;;;;;;;3.05;2.10;;;;;;;24.41;100.00;95969.72;5047653;28;20471;-78
2023/07/30 07:55:13;;;;;;;4.03;2.10;;;;;;;24.05;100.00;95973.03;5054197;28;20016;-78
2023/07/30 07:57:42;;;;;;;3.63;2.15;;;;;;;23.97;100.00;95971.59;5070551;28;20132;-78
2023/07/30 08:00:11;;;;;;;4.18;2.28;;;;;;;23.93;100.00;95973.97;5051090;28;20119;-78
2023/07/30 08:02:40;;;;;;;;;;;;;;;24.01;100.00;95959.31;5063189;28;20024;-78
2023/07/30 08:05:16;;;;;;;3.33;1.88;;;;;;;24.99;100.00;95963.78;5069998;28;20298;-78
2023/07/30 08:07:46;;;;;;;3.80;1.75;;;;;;;25.86;100.00;95967.91;5048148;28;20502;-78
2023/07/30 08:10:11;;;;;;;2.67;1.77;;;;;;;25.79;100.00;95965.41;5065434;28;20025;-78
2023/07/30 08:12:37;;;;;;;2.97;1.55;;;;;;;25.61;100.00;95971.22;5051696;28;20029;-78
2023/07/30 08:15:03;;;;;;;2.22;1.58;;;;;;;25.29;100.00;95969.44;5069709;28;20024;-78
2023/07/30 08:17:29;;;;;;;27.63;20.33;;;;;;;25.23;100.00;95980.41;5079067;28;20012;-79
2023/07/30 08:20:00;;;;;;;66.57;59.63;;;;;;;24.69;100.00;95965.94;5060199;28;20057;-75
2023/07/30 08:22:25;;;;;;;10.52;6.93;;;;;;;24.86;100.00;95975.78;5074852;28;20028;-80
2023/07/30 08:24:59;;;;;;;5.35;2.75;;;;;;;24.84;100.00;95978.72;5070471;28;20016;-78
2023/07/30 08:27:25;;;;;;;2.78;1.83;;;;;;;24.40;100.00;95978.00;5057793;28;20039;-79
2023/07/30 08:29:50;;;;;;;6.13;3.53;;;;;;;24.19;100.00;95977.78;5063152;28;20020;-78
2023/07/30 08:32:16;;;;;;;2.70;1.75;;;;;;;24.48;100.00;95980.28;5073276;28;20363;-79
2023/07/30 08:34:41;;;;;;;2.35;1.60;;;;;;;25.04;100.00;95982.66;5078017;28;20021;-78
2023/07/30 08:37:07;;;;;;;3.33;2.05;;;;;;;24.63;100.00;95980.41;5057884;28;20016;-78
2023/07/30 08:39:32;;;;;;;8.43;6.10;;;;;;;24.75;100.00;95980.25;5066127;28;20023;-78
2023/07/30 08:41:58;;;;;;;3.65;1.77;;;;;;;25.06;100.00;95977.84;5074514;28;20016;-80
2023/07/30 08:44:24;;;;;;;2.85;1.60;;;;;;;24.35;100.00;95986.00;5064339;28;20398;-80
2023/07/30 08:46:49;;;;;;;2.45;1.65;;;;;;;24.04;100.00;95987.53;5053418;28;20052;-81
2023/07/30 08:49:15;;;;;;;2.35;1.45;;;;;;;23.97;100.00;95998.44;5057402;28;20043;-80
2023/07/30 08:51:46;;;;;;;2.33;1.17;;;;;;;23.26;100.00;96000.94;5074274;28;20020;-80
2023/07/30 08:54:13;;;;;;;2.45;1.27;;;;;;;23.31;100.00;96003.69;5057016;28;20051;-78
2023/07/30 08:56:39;;;;;;;2.33;1.40;;;;;;;23.53;100.00;96003.75;5072236;28;20025;-77
2023/07/30 08:59:06;;;;;;;5.45;2.35;;;;;;;23.22;100.00;96000.59;5073757;28;20466;-78
2023/07/30 09:01:37;;;;;;;4.90;2.20;;;;;;;23.57;100.00;95994.13;5071639;28;20055;-78
2023/07/30 09:04:04;;;;;;;5.60;2.60;;;;;;;23.15;100.00;96009.88;5057416;28;20525;-77
2023/07/30 09:06:30;;;;;;;8.95;4.78;;;;;;;23.46;100.00;96016.53;5053946;28;20028;-78
2023/07/30 09:09:27;;;;;;;4.20;2.15;;;;;;;23.24;100.00;96025.34;5074537;28;20035;-78
2023/07/30 09:11:55;;;;;;;6.72;1.90;;;;;;;23.14;100.00;96019.81;5064662;28;20390;-80
2023/07/30 09:14:21;;;;;;;3.90;1.85;;;;;;;22.93;100.00;96017.81;5068740;28;20103;-78
2023/07/30 09:16:47;;;;;;;5.00;3.28;;;;;;;22.55;100.00;96021.97;5057846;28;20009;-79
2023/07/30 09:19:34;;;;;;;5.07;1.90;;;;;;;22.79;100.00;96023.47;5073403;28;20031;-80
2023/07/30 09:22:07;;;;;;;2.78;1.60;;;;;;;23.13;100.00;96017.34;5061315;28;20028;-79
2023/07/30 09:24:41;;;;;;;4.90;2.03;;;;;;;23.42;100.00;96016.22;5064945;28;20478;-79
2023/07/30 09:27:22;;;;;;;3.45;1.83;;;;;;;24.07;100.00;96005.81;5068567;28;20060;-80
2023/07/30 09:30:07;;;;;;;6.65;2.15;;;;;;;24.23;100.00;95999.56;5062009;28;20107;-80
2023/07/30 09:32:34;;;;;;;3.85;1.88;;;;;;;24.29;100.00;96013.88;5053900;28;21678;-80
2023/07/30 09:35:09;;;;;;;3.65;1.40;;;;;;;23.81;100.00;96002.84;5067373;28;20486;-80
2023/07/30 09:37:49;;;;;;;2.38;1.40;;;;;;;24.20;100.00;96011.63;5054030;28;20058;-79
2023/07/30 09:40:31;;;;;;;3.35;1.50;;;;;;;24.36;100.00;95999.19;5073554;28;20439;-80
2023/07/30 09:42:57;;;;;;;3.53;1.60;;;;;;;24.30;100.00;96010.94;5060153;28;20021;-80
2023/07/30 09:45:27;;;;;;;2.97;1.45;;;;;;;23.93;100.00;96016.94;5051129;28;20029;-80
2023/07/30 09:47:56;;;;;;;2.50;1.27;;;;;;;24.20;100.00;96017.00;5054743;28;20025;-80
2023/07/30 09:50:21;;;;;;;2.92;1.50;;;;;;;23.66;100.00;96016.81;5055635;28;20486;-79
2023/07/30 09:52:48;;;;;;;2.42;1.50;;;;;;;24.24;100.00;96022.69;5073159;28;20044;-80
2023/07/30 09:55:16;;;;;;;2.55;1.60;;;;;;;25.23;100.00;96018.91;5055868;28;20103;-80
2023/07/30 09:57:41;;;;;;;3.10;1.45;;;;;;;24.75;100.00;96014.38;5074007;28;20052;-80
2023/07/30 10:00:11;;;;;;;3.08;1.75;;;;;;;26.25;100.00;96014.13;5064499;28;20035;-80
2023/07/30 10:02:44;;;;;;;3.35;1.55;;;;;;;25.79;100.00;96019.28;5062695;28;20020;-80
2023/07/30 10:05:15;;;;;;;4.10;1.85;;;;;;;26.21;100.00;96014.91;5047908;28;20097;-79
2023/07/30 10:07:53;;;;;;;3.05;1.73;;;;;;;25.67;100.00;96009.78;5059346;28;20028;-79
2023/07/30 10:10:24;;;;;;;3.88;2.00;;;;;;;25.95;100.00;96005.91;5069925;28;20650;-80
2023/07/30 10:12:52;;;;;;;4.03;1.80;;;;;;;25.16;100.00;96012.94;5053833;28;20613;-80
2023/07/30 10:15:23;;;;;;;6.90;2.10;;;;;;;24.33;100.00;96010.44;5050795;28;20482;-79
2023/07/30 10:17:51;;;;;;;2.80;1.70;;;;;;;24.35;100.00;96002.94;5074652;28;20032;-78
2023/07/30 10:20:26;;;;;;;4.30;1.95;;;;;;;24.80;100.00;96003.69;5069663;28;20025;-79
2023/07/30 10:22:56;;;;;;;3.00;1.67;;;;;;;25.57;100.00;96008.63;5055640;28;20024;-79
2023/07/30 10:25:29;;;;;;;1.90;1.42;;;;;;;24.82;100.00;96012.34;5072276;28;20082;-79
2023/07/30 10:27:55;;;;;;;3.92;2.00;;;;;;;24.33;100.00;96010.44;5063834;28;20020;-78
2023/07/30 10:30:21;;;;;;;2.88;1.83;;;;;;;24.30;100.00;96010.13;5062499;28;20064;-79
2023/07/30 10:32:55;;;;;;;2.83;1.50;;;;;;;24.70;100.00;96010.59;5061877;28;20662;-79
2023/07/30 10:35:40;;;;;;;3.70;2.10;;;;;;;24.16;100.00;96020.47;5066118;28;20099;-78
2023/07/30 10:38:34;;;;;;;6.13;2.17;;;;;;;24.40;100.00;96018.31;5051590;28;20016;-80
2023/07/30 10:41:12;;;;;;;7.28;3.20;;;;;;;24.72;100.00;96028.38;5067120;28;20095;-77
2023/07/30 10:44:01;;;;;;;3.83;1.80;;;;;;;25.50;100.00;96024.22;5055287;28;20428;-80
2023/07/30 10:46:28;;;;;;;4.88;1.80;;;;;;;25.72;100.00;96025.94;5073557;28;20071;-78
2023/07/30 10:48:58;;;;;;;2.97;1.80;;;;;;;25.71;100.00;96035.91;5050487;28;20103;-78
2023/07/30 10:51:29;;;;;;;2.20;1.30;;;;;;;25.54;100.00;96029.88;5050115;28;20025;-78
2023/07/30 10:54:00;;;;;;;2.65;1.65;;;;;;;24.93;100.00;96030.19;5053300;28;20028;-78
2023/07/30 10:56:37;;;;;;;3.97;1.70;;;;;;;24.44;100.00;96035.59;5071392;28;20024;-78
2023/07/30 10:59:07;;;;;;;4.03;1.80;;;;;;;24.78;100.00;96040.78;5044308;28;20049;-78
2023/07/30 11:01:43;;;;;;;3.00;1.70;;;;;;;24.07;100.00;96044.25;5048938;28;20107;-76
2023/07/30 11:04:11;;;;;;;3.85;1.80;;;;;;;23.86;100.00;96047.72;5051938;28;20026;-78
2023/07/30 11:06:37;;;;;;;3.80;1.88;;;;;;;24.27;100.00;96056.31;5054799;28;20024;-76
2023/07/30 11:09:04;;;;;;;4.05;1.80;;;;;;;23.76;100.00;96040.34;5063917;28;20032;-76
2023/07/30 11:11:30;;;;;;;6.05;1.98;;;;;;;24.00;100.00;96043.63;5051291;28;20044;-76
2023/07/30 11:13:57;;;;;;;3.03;1.80;;;;;;;24.27;100.00;96045.56;5052255;28;20158;-76
2023/07/30 11:16:23;;;;;;;3.47;1.98;;;;;;;24.18;100.00;96043.34;5051515;28;20028;-76
2023/07/30 11:18:50;;;;;;;4.47;1.80;;;;;;;24.75;100.00;96035.91;5063422;28;20394;-76
2023/07/30 11:21:19;;;;;;;4.85;2.30;;;;;;;24.98;100.00;96038.28;5075164;28;20090;-76
2023/07/30 11:23:50;;;;;;;3.58;1.83;;;;;;;24.52;100.00;96043.22;5060779;28;20465;-76
2023/07/30 11:26:18;;;;;;;4.40;2.33;;;;;;;25.17;100.00;96044.13;5066000;28;20025;-76
2023/07/30 11:28:44;;;;;;;3.80;1.90;;;;;;;25.78;100.00;96043.78;5064991;28;20025;-77